Time;durP1;ratioP1;P1;durP2;ratioP2;P2;SDS_P1;SDS_P2;PMS_P1;PMS_P2;Temp;Humidity;BMP_temperature;BMP_pressure;BME280_temperature;BME280_humidity;BME280_pressure;Samples;Min_cycle;Max_cycle;Signal;HPM_P1;HPM_P2
2023/02/19 00:00:41;;;;;;;;;;;;;;;;;;5090891;28;19924;-67
2023/02/19 00:03:07;;;;;;;;;;;;;;;;;;5088622;28;20277;-67
2023/02/19 00:05:33;;;;;;;;;;;;;;;;;;5084900;28;19966;-66
2023/02/19 00:07:59;;;;;;;;;;;;;;;;;;5091210;28;19984;-66
2023/02/19 00:10:25;;;;;;;;;;;;;;;;;;5083177;28;19919;-66
2023/02/19 00:12:51;;;;;;;;;;;;;;;;;;5084901;28;19924;-66
2023/02/19 00:15:17;;;;;;;;;;;;;;;;;;5090398;28;19920;-66
2023/02/19 00:17:43;;;;;;;;;;;;;;;;;;5092722;28;20371;-66
2023/02/19 00:20:09;;;;;;;;;;;;;;;;;;5092653;28;19932;-66
2023/02/19 00:22:35;;;;;;;;;;;;;;;;;;5074942;28;19931;-66
2023/02/19 00:25:00;;;;;;;;;;;;;;;;;;5086257;28;19920;-67
2023/02/19 00:27:26;;;;;;;;;;;;;;;;;;5072129;28;19924;-66
2023/02/19 00:29:52;;;;;;;;;;;;;;;;;;5078014;28;19927;-67
2023/02/19 00:32:18;;;;;;;;;;;;;;;;;;5077882;28;20433;-67
2023/02/19 00:34:44;;;;;;;;;;;;;;;;;;5073786;28;19943;-67
2023/02/19 00:37:10;;;;;;;;;;;;;;;;;;5089099;28;19928;-66
2023/02/19 00:39:36;;;;;;;;;;;;;;;;;;5090570;28;20043;-65
2023/02/19 00:42:02;;;;;;;;;;;;;;;;;;5071603;28;19932;-65
2023/02/19 00:44:28;;;;;;;;;;;;;;;;;;5090669;28;20362;-66
2023/02/19 00:46:54;;;;;;;;;;;;;;;;;;5072488;28;19920;-65
2023/02/19 00:49:20;;;;;;;;;;;;;;;;;;5066048;28;20722;-66
2023/02/19 00:51:46;;;;;;;;;;;;;;;;;;5070253;28;20366;-66
2023/02/19 00:54:11;;;;;;;;;;;;;;;;;;5081598;28;19920;-66
2023/02/19 00:56:37;;;;;;;;;;;;;;;;;;5083385;28;19920;-65
2023/02/19 00:59:03;;;;;;;;;;;;;;;;;;5088860;28;19926;-66
2023/02/19 01:01:29;;;;;;;;;;;;;;;;;;5085703;28;19932;-66
2023/02/19 01:03:55;;;;;;;;;;;;;;;;;;5088274;28;20364;-66
2023/02/19 01:06:21;;;;;;;;;;;;;;;;;;5087561;28;19928;-66
2023/02/19 01:08:47;;;;;;;;;;;;;;;;;;5090573;28;19955;-66
2023/02/19 01:11:13;;;;;;;;;;;;;;;;;;5091312;28;19924;-66
2023/02/19 01:13:39;;;;;;;;;;;;;;;;;;5086910;28;20061;-66
2023/02/19 01:16:04;;;;;;;;;;;;;;;;;;5075408;28;20274;-66
2023/02/19 01:18:30;;;;;;;;;;;;;;;;;;5084599;28;19973;-66
2023/02/19 01:20:56;;;;;;;;;;;;;;;;;;5084844;28;19925;-66
2023/02/19 01:23:22;;;;;;;;;;;;;;;;;;5080983;28;19920;-66
2023/02/19 01:25:48;;;;;;;;;;;;;;;;;;5089508;28;20332;-66
2023/02/19 01:28:14;;;;;;;;;;;;;;;;;;5089567;28;19924;-66
2023/02/19 01:30:40;;;;;;;;;;;;;;;;;;5086205;28;19924;-66
2023/02/19 01:33:06;;;;;;;;;;;;;;;;;;5089720;28;19920;-66
2023/02/19 01:35:32;;;;;;;;;;;;;;;;;;5089991;28;19970;-66
2023/02/19 01:37:57;;;;;;;;;;;;;;;;;;5090216;28;19920;-66
2023/02/19 01:40:23;;;;;;;;;;;;;;;;;;5088366;28;19924;-66
2023/02/19 01:42:49;;;;;;;;;;;;;;;;;;5090566;28;20003;-66
2023/02/19 01:45:17;;;;;;;;;;;;;;;;;;5085630;28;20274;-66
2023/02/19 01:47:43;;;;;;;;;;;;;;;;;;5088628;28;19938;-67
2023/02/19 01:50:09;;;;;;;;;;;;;;;;;;5079932;28;20007;-67
2023/02/19 01:52:35;;;;;;;;;;;;;;;;;;5084350;28;19920;-65
2023/02/19 01:55:00;;;;;;;;;;;;;;;;;;5091281;28;19974;-66
2023/02/19 01:57:26;;;;;;;;;;;;;;;;;;5090985;28;20363;-65
2023/02/19 01:59:54;;;;;;;;;;;;;;;;;;5093974;28;19935;-67
2023/02/19 02:02:19;;;;;;;;;;;;;;;;;;5091975;28;19975;-67
2023/02/19 02:04:45;;;;;;;;;;;;;;;;;;5082870;28;19967;-67
2023/02/19 02:12:40;;;;;;;;;;;;;;;;;;5082272;28;19963;-66
2023/02/19 02:15:06;;;;;;;;;;;;;;;;;;5091656;28;19951;-66
2023/02/19 02:17:32;;;;;;;;;;;;;;;;;;5093581;28;19931;-66
2023/02/19 02:19:58;;;;;;;;;;;;;;;;;;5085888;28;19920;-66
2023/02/19 02:22:24;;;;;;;;;;;;;;;;;;5089612;28;19926;-66
2023/02/19 02:24:50;;;;;;;;;;;;;;;;;;5091204;28;20380;-66
2023/02/19 02:27:16;;;;;;;;;;;;;;;;;;5078940;28;19928;-67
2023/02/19 02:29:42;;;;;;;;;;;;;;;;;;5092969;28;20289;-67
2023/02/19 02:32:07;;;;;;;;;;;;;;;;;;5088304;28;19920;-66
2023/02/19 02:34:34;;;;;;;;;;;;;;;;;;5091533;28;20007;-67
2023/02/19 02:37:00;;;;;;;;;;;;;;;;;;5091360;28;19928;-67
2023/02/19 02:39:25;;;;;;;;;;;;;;;;;;5087272;28;20388;-67
2023/02/19 02:42:25;;;;;;;;;;;;;;;;;;5081051;28;19947;-67
2023/02/19 02:44:37;;;;;;;;;;;;;;;;;;5090330;28;20389;-67
2023/02/19 02:47:03;;;;;;;;;;;;;;;;;;5091301;28;19924;-67
2023/02/19 02:49:29;;;;;;;;;;;;;;;;;;5091174;28;19931;-66
2023/02/19 02:51:55;;;;;;;;;;;;;;;;;;5090595;28;20010;-67
2023/02/19 02:57:05;;;;;;;;;;;;;;;;;;5088920;28;19960;-67
2023/02/19 02:59:31;;;;;;;;;;;;;;;;;;5078227;28;19983;-67
2023/02/19 03:02:09;;;;;;;;;;;;;;;;;;5087436;28;19920;-67
2023/02/19 03:04:35;;;;;;;;;;;;;;;;;;5087738;28;20009;-66
2023/02/19 03:07:01;;;;;;;;;;;;;;;;;;5091981;28;20019;-65
2023/02/19 03:09:29;;;;;;;;;;;;;;;;;;5089941;28;19923;-65
2023/02/19 03:20:08;;;;;;;;;;;;;;;;;;5091185;28;20389;-66
2023/02/19 03:22:34;;;;;;;;;;;;;;;;;;5077354;28;19920;-66
2023/02/19 03:27:44;;;;;;;;;;;;;;;;;;5086250;28;20309;-66
2023/02/19 03:30:10;;;;;;;;;;;;;;;;;;5091204;28;19924;-67
2023/02/19 03:32:36;;;;;;;;;;;;;;;;;;5087802;28;19926;-67
2023/02/19 03:35:02;;;;;;;;;;;;;;;;;;5079021;28;19925;-67
2023/02/19 03:37:28;;;;;;;;;;;;;;;;;;5084599;28;20312;-67
2023/02/19 03:39:54;;;;;;;;;;;;;;;;;;5092352;28;19972;-67
2023/02/19 03:42:20;;;;;;;;;;;;;;;;;;5091216;28;19927;-67
2023/02/19 03:44:46;;;;;;;;;;;;;;;;;;5089531;28;19928;-67
2023/02/19 03:47:12;;;;;;;;;;;;;;;;;;5079711;28;19928;-66
2023/02/19 03:49:37;;;;;;;;;;;;;;;;;;5085484;28;19924;-66
2023/02/19 03:52:03;;;;;;;;;;;;;;;;;;5082117;28;19997;-66
2023/02/19 03:54:29;;;;;;;;;;;;;;;;;;5075863;28;20440;-66
2023/02/19 03:56:55;;;;;;;;;;;;;;;;;;5092436;28;19930;-66
2023/02/19 03:59:21;;;;;;;;;;;;;;;;;;5087807;28;20007;-66
2023/02/19 04:01:47;;;;;;;;;;;;;;;;;;5090654;28;19927;-66
2023/02/19 04:04:13;;;;;;;;;;;;;;;;;;5090888;28;19920;-66
2023/02/19 04:06:39;;;;;;;;;;;;;;;;;;5091395;28;20678;-66
2023/02/19 04:09:04;;;;;;;;;;;;;;;;;;5071563;28;19971;-67
2023/02/19 04:11:30;;;;;;;;;;;;;;;;;;5091114;28;19926;-67
2023/02/19 04:13:56;;;;;;;;;;;;;;;;;;5089750;28;19926;-67
2023/02/19 04:16:22;;;;;;;;;;;;;;;;;;5087816;28;19936;-67
2023/02/19 04:18:48;;;;;;;;;;;;;;;;;;5084754;28;20435;-67
2023/02/19 04:21:14;;;;;;;;;;;;;;;;;;5090321;28;19920;-67
2023/02/19 04:23:40;;;;;;;;;;;;;;;;;;5089359;28;19943;-67
2023/02/19 04:26:06;;;;;;;;;;;;;;;;;;5071146;28;19971;-67
2023/02/19 04:28:32;;;;;;;;;;;;;;;;;;5071875;28;19928;-67
2023/02/19 04:30:58;;;;;;;;;;;;;;;;;;5091540;28;19924;-67
2023/02/19 04:33:24;;;;;;;;;;;;;;;;;;5089975;28;19964;-67
2023/02/19 04:35:50;;;;;;;;;;;;;;;;;;5078154;28;20344;-67
2023/02/19 04:38:16;;;;;;;;;;;;;;;;;;5090223;28;19927;-67
2023/02/19 04:40:42;;;;;;;;;;;;;;;;;;5071372;28;19977;-67
2023/02/19 04:43:08;;;;;;;;;;;;;;;;;;5071150;28;19956;-67
2023/02/19 04:45:34;;;;;;;;;;;;;;;;;;5072062;28;19925;-67
2023/02/19 04:47:59;;;;;;;;;;;;;;;;;;5080921;28;20381;-67
2023/02/19 04:50:25;;;;;;;;;;;;;;;;;;5079419;28;19920;-66
2023/02/19 04:52:51;;;;;;;;;;;;;;;;;;5089289;28;20281;-66
2023/02/19 04:55:17;;;;;;;;;;;;;;;;;;5071637;28;19924;-67
2023/02/19 04:57:43;;;;;;;;;;;;;;;;;;5071016;28;19924;-66
2023/02/19 05:00:09;;;;;;;;;;;;;;;;;;5071077;28;19994;-67
2023/02/19 05:02:35;;;;;;;;;;;;;;;;;;5071110;28;20007;-66
2023/02/19 05:05:01;;;;;;;;;;;;;;;;;;5068191;28;19925;-66
2023/02/19 05:07:27;;;;;;;;;;;;;;;;;;5072274;28;19982;-66
2023/02/19 05:09:52;;;;;;;;;;;;;;;;;;5086097;28;19928;-66
2023/02/19 05:12:18;;;;;;;;;;;;;;;;;;5083681;28;19931;-66
2023/02/19 05:14:44;;;;;;;;;;;;;;;;;;5070823;28;20457;-66
2023/02/19 05:17:10;;;;;;;;;;;;;;;;;;5071026;28;19931;-66
2023/02/19 05:19:36;;;;;;;;;;;;;;;;;;5093448;28;20570;-66
2023/02/19 05:22:02;;;;;;;;;;;;;;;;;;5084720;28;19951;-66
2023/02/19 05:24:28;;;;;;;;;;;;;;;;;;5088673;28;19937;-66
2023/02/19 05:26:54;;;;;;;;;;;;;;;;;;5088214;28;19920;-66
2023/02/19 05:29:20;;;;;;;;;;;;;;;;;;5086738;28;20381;-66
2023/02/19 05:31:47;;;;;;;;;;;;;;;;;;5082849;28;20015;-65
2023/02/19 05:34:13;;;;;;;;;;;;;;;;;;5087810;28;19928;-65
2023/02/19 05:36:40;;;;;;;;;;;;;;;;;;5090856;28;19935;-65
2023/02/19 05:39:07;;;;;;;;;;;;;;;;;;5089762;28;19966;-66
2023/02/19 05:41:33;;;;;;;;;;;;;;;;;;5090970;28;19920;-66
2023/02/19 05:43:59;;;;;;;;;;;;;;;;;;5085844;28;20543;-66
2023/02/19 05:46:25;;;;;;;;;;;;;;;;;;5083841;28;19931;-66
2023/02/19 05:48:50;;;;;;;;;;;;;;;;;;5090774;28;19931;-66
2023/02/19 05:51:16;;;;;;;;;;;;;;;;;;5089751;28;19920;-66
2023/02/19 05:53:42;;;;;;;;;;;;;;;;;;5087402;28;20397;-66
2023/02/19 05:56:08;;;;;;;;;;;;;;;;;;5088714;28;20297;-66
2023/02/19 05:58:34;;;;;;;;;;;;;;;;;;5090737;28;19928;-66
2023/02/19 06:01:00;;;;;;;;;;;;;;;;;;5083662;28;19928;-66
2023/02/19 06:03:26;;;;;;;;;;;;;;;;;;5085746;28;19924;-66
2023/02/19 06:05:52;;;;;;;;;;;;;;;;;;5083439;28;19920;-66
2023/02/19 06:08:18;;;;;;;;;;;;;;;;;;5084192;28;20023;-66
2023/02/19 06:10:43;;;;;;;;;;;;;;;;;;5087113;28;20426;-66
2023/02/19 06:13:09;;;;;;;;;;;;;;;;;;5089667;28;19973;-66
2023/02/19 06:15:35;;;;;;;;;;;;;;;;;;5089614;28;20086;-66
2023/02/19 06:18:01;;;;;;;;;;;;;;;;;;5080945;28;19924;-66
2023/02/19 06:20:27;;;;;;;;;;;;;;;;;;5088896;28;19924;-66
2023/02/19 06:22:53;;;;;;;;;;;;;;;;;;5090061;28;19924;-66
2023/02/19 06:25:19;;;;;;;;;;;;;;;;;;5087183;28;19977;-66
2023/02/19 06:27:45;;;;;;;;;;;;;;;;;;5082480;28;19925;-67
2023/02/19 06:30:11;;;;;;;;;;;;;;;;;;5088472;28;19967;-67
2023/02/19 06:32:36;;;;;;;;;;;;;;;;;;5090198;28;19931;-67
2023/02/19 06:35:02;;;;;;;;;;;;;;;;;;5092935;28;19928;-67
2023/02/19 06:37:28;;;;;;;;;;;;;;;;;;5089227;28;20384;-67
2023/02/19 06:39:54;;;;;;;;;;;;;;;;;;5093188;28;19924;-67
2023/02/19 06:42:20;;;;;;;;;;;;;;;;;;5082839;28;19924;-67
2023/02/19 06:44:46;;;;;;;;;;;;;;;;;;5090303;28;20433;-67
2023/02/19 06:47:12;;;;;;;;;;;;;;;;;;5084024;28;19924;-66
2023/02/19 06:49:38;;;;;;;;;;;;;;;;;;5077582;28;20003;-66
2023/02/19 06:52:04;;;;;;;;;;;;;;;;;;5090567;28;19932;-66
2023/02/19 06:54:30;;;;;;;;;;;;;;;;;;5088390;28;19970;-66
2023/02/19 06:56:57;;;;;;;;;;;;;;;;;;5090513;28;19920;-65
2023/02/19 06:59:23;;;;;;;;;;;;;;;;;;5091416;28;19945;-66
2023/02/19 07:01:49;;;;;;;;;;;;;;;;;;5083301;28;19928;-66
2023/02/19 07:04:15;;;;;;;;;;;;;;;;;;5077956;28;19924;-66
2023/02/19 07:06:41;;;;;;;;;;;;;;;;;;5079062;28;19924;-66
2023/02/19 07:09:07;;;;;;;;;;;;;;;;;;5091090;28;19928;-66
2023/02/19 07:11:33;;;;;;;;;;;;;;;;;;5090711;28;20366;-66
2023/02/19 07:13:59;;;;;;;;;;;;;;;;;;5089406;28;20624;-66
2023/02/19 07:16:25;;;;;;;;;;;;;;;;;;5095916;28;20285;-66
2023/02/19 07:18:50;;;;;;;;;;;;;;;;;;5090763;28;19921;-66
2023/02/19 07:21:16;;;;;;;;;;;;;;;;;;5083757;28;19966;-66
2023/02/19 07:23:42;;;;;;;;;;;;;;;;;;5090560;28;19923;-66
2023/02/19 07:26:08;;;;;;;;;;;;;;;;;;5091514;28;19924;-66
2023/02/19 07:28:34;;;;;;;;;;;;;;;;;;5074579;28;19928;-66
2023/02/19 07:31:00;;;;;;;;;;;;;;;;;;5093464;28;19963;-66
2023/02/19 07:33:26;;;;;;;;;;;;;;;;;;5091061;28;19970;-66
2023/02/19 07:35:52;;;;;;;;;;;;;;;;;;5073889;28;19927;-66
2023/02/19 07:38:18;;;;;;;;;;;;;;;;;;5072973;28;19924;-66
2023/02/19 07:40:44;;;;;;;;;;;;;;;;;;5091920;28;19977;-66
2023/02/19 07:43:09;;;;;;;;;;;;;;;;;;5080963;28;19926;-66
2023/02/19 07:45:35;;;;;;;;;;;;;;;;;;5083839;28;19924;-66
2023/02/19 07:48:01;;;;;;;;;;;;;;;;;;5092425;28;20369;-66
2023/02/19 07:50:27;;;;;;;;;;;;;;;;;;5084988;28;19935;-66
2023/02/19 07:52:53;;;;;;;;;;;;;;;;;;5073502;28;19927;-66
2023/02/19 07:55:19;;;;;;;;;;;;;;;;;;5079786;28;20357;-66
2023/02/19 07:57:45;;;;;;;;;;;;;;;;;;5080385;28;19932;-66
2023/02/19 08:00:11;;;;;;;;;;;;;;;;;;5076141;28;19920;-66
2023/02/19 08:05:21;;;;;;;;;;;;;;;;;;5093010;28;19971;-66
2023/02/19 08:07:47;;;;;;;;;;;;;;;;;;5079936;28;19968;-66
2023/02/19 08:15:42;;;;;;;;;;;;;;;;;;5087724;28;19928;-66
2023/02/19 08:18:08;;;;;;;;;;;;;;;;;;5075670;28;20403;-66
2023/02/19 08:20:33;;;;;;;;;;;;;;;;;;5092527;28;19959;-66
2023/02/19 08:22:59;;;;;;;;;;;;;;;;;;5091311;28;20024;-66
2023/02/19 08:25:25;;;;;;;;;;;;;;;;;;5089666;28;19967;-66
2023/02/19 08:27:51;;;;;;;;;;;;;;;;;;5090053;28;19932;-66
2023/02/19 08:30:17;;;;;;;;;;;;;;;;;;5088208;28;20003;-66
2023/02/19 08:32:43;;;;;;;;;;;;;;;;;;5073736;28;19931;-66
2023/02/19 08:35:09;;;;;;;;;;;;;;;;;;5090755;28;20377;-66
2023/02/19 08:37:35;;;;;;;;;;;;;;;;;;5082356;28;19928;-66
2023/02/19 08:40:00;;;;;;;;;;;;;;;;;;5072325;28;20301;-66
2023/02/19 08:42:26;;;;;;;;;;;;;;;;;;5087987;28;20018;-66
2023/02/19 08:44:52;;;;;;;;;;;;;;;;;;5090616;28;20068;-66
2023/02/19 08:49:46;;;;;;;;;;;;;;;;;;5060763;28;20305;-66
2023/02/19 08:52:12;;;;;;;;;;;;;;;;;;5065364;28;19920;-66
2023/02/19 08:54:38;;;;;;;;;;;;;;;;;;5069706;28;19924;-66
2023/02/19 08:57:04;;;;;;;;;;;;;;;;;;5049916;28;19924;-66
2023/02/19 08:59:30;;;;;;;;;;;;;;;;;;5071963;28;19999;-66
2023/02/19 09:01:56;;;;;;;;;;;;;;;;;;5070117;28;19920;-67
2023/02/19 09:04:22;;;;;;;;;;;;;;;;;;5052264;28;20452;-66
2023/02/19 09:06:48;;;;;;;;;;;;;;;;;;5043581;28;19928;-66
2023/02/19 09:09:13;;;;;;;;;;;;;;;;;;5075102;28;20266;-66
2023/02/19 09:11:39;;;;;;;;;;;;;;;;;;5054999;28;19921;-66
2023/02/19 09:14:06;;;;;;;;;;;;;;;;;;5052305;28;19920;-67
2023/02/19 09:16:32;;;;;;;;;;;;;;;;;;5069177;28;19929;-66
2023/02/19 09:18:58;;;;;;;;;;;;;;;;;;5070624;28;19944;-66
2023/02/19 09:21:24;;;;;;;;;;;;;;;;;;5052669;28;19933;-66
2023/02/19 09:23:50;;;;;;;;;;;;;;;;;;5065275;28;19924;-67
2023/02/19 09:26:16;;;;;;;;;;;;;;;;;;5071042;28;20017;-67
2023/02/19 09:28:42;;;;;;;;;;;;;;;;;;5070013;28;19924;-67
2023/02/19 09:31:07;;;;;;;;;;;;;;;;;;5071695;28;20015;-67
2023/02/19 09:33:33;;;;;;;;;;;;;;;;;;5067665;28;20404;-67
2023/02/19 09:35:59;;;;;;;;;;;;;;;;;;5071527;28;19927;-68
2023/02/19 09:38:25;;;;;;;;;;;;;;;;;;5071019;28;20277;-67
2023/02/19 09:40:51;;;;;;;;;;;;;;;;;;5071472;28;19963;-67
2023/02/19 09:43:17;;;;;;;;;;;;;;;;;;5051230;28;19939;-67
2023/02/19 09:45:43;;;;;;;;;;;;;;;;;;5067590;28;19925;-67
2023/02/19 09:48:09;;;;;;;;;;;;;;;;;;5071096;28;20254;-67
2023/02/19 09:50:35;;;;;;;;;;;;;;;;;;5068492;28;19924;-67
2023/02/19 09:53:01;;;;;;;;;;;;;;;;;;5068976;28;20392;-67
2023/02/19 09:55:27;;;;;;;;;;;;;;;;;;5069654;28;19998;-67
2023/02/19 09:57:53;;;;;;;;;;;;;;;;;;5051626;28;19934;-67
2023/02/19 10:00:19;;;;;;;;;;;;;;;;;;5069742;28;19971;-67
2023/02/19 10:02:45;;;;;;;;;;;;;;;;;;5056736;28;19935;-67
2023/02/19 10:05:11;;;;;;;;;;;;;;;;;;5050865;28;19924;-67
2023/02/19 10:07:37;;;;;;;;;;;;;;;;;;5052364;28;20005;-67
2023/02/19 10:10:03;;;;;;;;;;;;;;;;;;5071348;28;19925;-67
2023/02/19 10:12:29;;;;;;;;;;;;;;;;;;5067080;28;19950;-67
2023/02/19 10:14:55;;;;;;;;;;;;;;;;;;5075788;28;20270;-68
2023/02/19 10:17:21;;;;;;;;;;;;;;;;;;5076680;28;19936;-67
2023/02/19 10:19:47;;;;;;;;;;;;;;;;;;5079332;28;19931;-68
2023/02/19 10:22:13;;;;;;;;;;;;;;;;;;5056044;28;20481;-68
2023/02/19 10:24:38;;;;;;;;;;;;;;;;;;5067692;28;19931;-68
2023/02/19 10:27:04;;;;;;;;;;;;;;;;;;5066953;28;19928;-68
2023/02/19 10:29:30;;;;;;;;;;;;;;;;;;5066449;28;19925;-67
2023/02/19 10:31:56;;;;;;;;;;;;;;;;;;5072276;28;20058;-67
2023/02/19 10:34:22;;;;;;;;;;;;;;;;;;5071686;28;19947;-68
2023/02/19 10:36:49;;;;;;;;;;;;;;;;;;5054613;28;19932;-69
2023/02/19 10:39:14;;;;;;;;;;;;;;;;;;5056341;28;20586;-67
2023/02/19 10:41:40;;;;;;;;;;;;;;;;;;5073692;28;20002;-67
2023/02/19 10:44:06;;;;;;;;;;;;;;;;;;5073162;28;19931;-68
2023/02/19 10:46:32;;;;;;;;;;;;;;;;;;5073207;28;19932;-67
2023/02/19 10:48:58;;;;;;;;;;;;;;;;;;5071830;28;19928;-68
2023/02/19 10:51:25;;;;;;;;;;;;;;;;;;5066698;28;19962;-68
2023/02/19 10:53:51;;;;;;;;;;;;;;;;;;5066988;28;19970;-67
2023/02/19 10:56:17;;;;;;;;;;;;;;;;;;5079344;28;19939;-67
2023/02/19 10:58:43;;;;;;;;;;;;;;;;;;5069031;28;19920;-68
2023/02/19 11:01:10;;;;;;;;;;;;;;;;;;5073232;28;19962;-67
2023/02/19 11:03:36;;;;;;;;;;;;;;;;;;5072550;28;20335;-67
2023/02/19 11:06:01;;;;;;;;;;;;;;;;;;5059928;28;20023;-67
2023/02/19 11:08:27;;;;;;;;;;;;;;;;;;5073734;28;19924;-67
2023/02/19 11:10:53;;;;;;;;;;;;;;;;;;5071852;28;20507;-67
2023/02/19 11:13:19;;;;;;;;;;;;;;;;;;5072058;28;19920;-68
2023/02/19 11:15:45;;;;;;;;;;;;;;;;;;5073265;28;19924;-67
2023/02/19 11:18:11;;;;;;;;;;;;;;;;;;5054381;28;20772;-67
2023/02/19 11:20:37;;;;;;;;;;;;;;;;;;5070356;28;19921;-68
2023/02/19 11:23:03;;;;;;;;;;;;;;;;;;5072757;28;19952;-67
2023/02/19 11:25:28;;;;;;;;;;;;;;;;;;5071036;28;19931;-68
2023/02/19 11:27:54;;;;;;;;;;;;;;;;;;5071735;28;19928;-67
2023/02/19 11:30:20;;;;;;;;;;;;;;;;;;5073551;28;20623;-67
2023/02/19 11:32:46;;;;;;;;;;;;;;;;;;5072525;28;19920;-68
2023/02/19 11:35:13;;;;;;;;;;;;;;;;;;5073253;28;20322;-67
2023/02/19 11:37:38;;;;;;;;;;;;;;;;;;5073264;28;19971;-68
2023/02/19 11:40:04;;;;;;;;;;;;;;;;;;5072415;28;19955;-67
2023/02/19 11:42:30;;;;;;;;;;;;;;;;;;5069633;28;20267;-67
2023/02/19 11:44:56;;;;;;;;;;;;;;;;;;5070575;28;19920;-67
2023/02/19 11:47:22;;;;;;;;;;;;;;;;;;5067155;28;19944;-68
2023/02/19 11:49:48;;;;;;;;;;;;;;;;;;5050171;28;19939;-68
2023/02/19 11:52:14;;;;;;;;;;;;;;;;;;5072240;28;20389;-68
2023/02/19 11:54:40;;;;;;;;;;;;;;;;;;5065751;28;19920;-68
2023/02/19 11:57:06;;;;;;;;;;;;;;;;;;5069100;28;20569;-68
2023/02/19 11:59:31;;;;;;;;;;;;;;;;;;5069541;28;20297;-67
2023/02/19 12:01:57;;;;;;;;;;;;;;;;;;5071796;28;19921;-67
2023/02/19 12:04:23;;;;;;;;;;;;;;;;;;5070188;28;20101;-67
2023/02/19 12:06:49;;;;;;;;;;;;;;;;;;5071395;28;19981;-67
2023/02/19 12:09:15;;;;;;;;;;;;;;;;;;5070189;28;19924;-67
2023/02/19 12:11:41;;;;;;;;;;;;;;;;;;5072563;28;19964;-67
2023/02/19 12:14:07;;;;;;;;;;;;;;;;;;5055571;28;19935;-67
2023/02/19 12:16:33;;;;;;;;;;;;;;;;;;5070954;28;19924;-67
2023/02/19 12:18:58;;;;;;;;;;;;;;;;;;5074711;28;20282;-67
2023/02/19 12:21:24;;;;;;;;;;;;;;;;;;5070320;28;19927;-67
2023/02/19 12:23:50;;;;;;;;;;;;;;;;;;5077791;28;19920;-67
2023/02/19 12:26:16;;;;;;;;;;;;;;;;;;5076869;28;19933;-67
2023/02/19 12:28:42;;;;;;;;;;;;;;;;;;5072111;28;19982;-68
2023/02/19 12:31:08;;;;;;;;;;;;;;;;;;5072205;28;19964;-67
2023/02/19 12:33:34;;;;;;;;;;;;;;;;;;5054468;28;20395;-67
2023/02/19 12:36:00;;;;;;;;;;;;;;;;;;5072365;28;20416;-67
2023/02/19 12:38:26;;;;;;;;;;;;;;;;;;5070345;28;19925;-67
2023/02/19 12:40:51;;;;;;;;;;;;;;;;;;5071806;28;19925;-67
2023/02/19 12:43:17;;;;;;;;;;;;;;;;;;5072261;28;19970;-67
2023/02/19 12:45:43;;;;;;;;;;;;;;;;;;5071251;28;19928;-67
2023/02/19 12:48:09;;;;;;;;;;;;;;;;;;5066505;28;20374;-67
2023/02/19 12:50:35;;;;;;;;;;;;;;;;;;5072003;28;19927;-67
2023/02/19 12:53:01;;;;;;;;;;;;;;;;;;5071836;28;20409;-67
2023/02/19 12:55:27;;;;;;;;;;;;;;;;;;5071808;28;19921;-67
2023/02/19 12:57:53;;;;;;;;;;;;;;;;;;5068993;28;19948;-67
2023/02/19 13:00:19;;;;;;;;;;;;;;;;;;5042287;28;19989;-67
2023/02/19 13:02:45;;;;;;;;;;;;;;;;;;5051106;28;20431;-67
2023/02/19 13:05:11;;;;;;;;;;;;;;;;;;5053718;28;19999;-67
2023/02/19 13:07:37;;;;;;;;;;;;;;;;;;5069037;28;19921;-66
2023/02/19 13:10:03;;;;;;;;;;;;;;;;;;5068762;28;19928;-67
2023/02/19 13:12:29;;;;;;;;;;;;;;;;;;5051763;28;20628;-67
2023/02/19 13:14:55;;;;;;;;;;;;;;;;;;5068753;28;20005;-67
2023/02/19 13:17:21;;;;;;;;;;;;;;;;;;5070968;28;20305;-67
2023/02/19 13:19:47;;;;;;;;;;;;;;;;;;5070698;28;19982;-67
2023/02/19 13:24:57;;;;;;;;;;;;;;;;;;5063957;28;19920;-67
2023/02/19 13:27:23;;;;;;;;;;;;;;;;;;5069330;28;20327;-66
2023/02/19 13:29:49;;;;;;;;;;;;;;;;;;5061142;28;19921;-67
2023/02/19 13:32:15;;;;;;;;;;;;;;;;;;5067439;28;19959;-67
2023/02/19 13:34:41;;;;;;;;;;;;;;;;;;5052950;28;19921;-67
2023/02/19 13:37:07;;;;;;;;;;;;;;;;;;5066239;28;19920;-66
2023/02/19 13:39:33;;;;;;;;;;;;;;;;;;5061774;28;19928;-67
2023/02/19 13:41:59;;;;;;;;;;;;;;;;;;5053035;28;19952;-67
2023/02/19 13:44:24;;;;;;;;;;;;;;;;;;5068897;28;20439;-66
2023/02/19 13:46:50;;;;;;;;;;;;;;;;;;5075140;28;20022;-66
2023/02/19 13:49:16;;;;;;;;;;;;;;;;;;5075418;28;19924;-66
2023/02/19 13:51:42;;;;;;;;;;;;;;;;;;5078478;28;20002;-66
2023/02/19 13:54:10;;;;;;;;;;;;;;;;;;5067277;28;21203;-66
2023/02/19 13:56:36;;;;;;;;;;;;;;;;;;5055299;28;20003;-67
2023/02/19 13:59:04;;;;;;;;;;;;;;;;;;5050395;28;19931;-67
2023/02/19 14:01:29;;;;;;;;;;;;;;;;;;5072582;28;19947;-66
2023/02/19 14:03:55;;;;;;;;;;;;;;;;;;5054228;28;20350;-67
2023/02/19 14:06:21;;;;;;;;;;;;;;;;;;5070134;28;19936;-67
2023/02/19 14:08:47;;;;;;;;;;;;;;;;;;5070764;28;19924;-67
2023/02/19 14:11:14;;;;;;;;;;;;;;;;;;5069602;28;20411;-66
2023/02/19 14:13:40;;;;;;;;;;;;;;;;;;5070737;28;19924;-66
2023/02/19 14:16:06;;;;;;;;;;;;;;;;;;5067808;28;19928;-67
2023/02/19 14:18:32;;;;;;;;;;;;;;;;;;5073407;28;20321;-67
2023/02/19 14:20:58;;;;;;;;;;;;;;;;;;5040175;28;19927;-67
2023/02/19 14:23:24;;;;;;;;;;;;;;;;;;5074347;28;19925;-67
2023/02/19 14:25:51;;;;;;;;;;;;;;;;;;5074358;28;20388;-67
2023/02/19 14:28:17;;;;;;;;;;;;;;;;;;5074138;28;20004;-66
2023/02/19 14:30:43;;;;;;;;;;;;;;;;;;5073496;28;20417;-68
2023/02/19 14:33:09;;;;;;;;;;;;;;;;;;5069532;28;19966;-67
2023/02/19 14:35:35;;;;;;;;;;;;;;;;;;5071524;28;19920;-68
2023/02/19 14:38:00;;;;;;;;;;;;;;;;;;5070593;28;19927;-68
2023/02/19 14:40:26;;;;;;;;;;;;;;;;;;5074311;28;19960;-67
2023/02/19 14:42:52;;;;;;;;;;;;;;;;;;5072653;28;19948;-66
2023/02/19 14:45:18;;;;;;;;;;;;;;;;;;5052367;28;19920;-66
2023/02/19 14:47:44;;;;;;;;;;;;;;;;;;5073892;28;20003;-66
2023/02/19 14:50:10;;;;;;;;;;;;;;;;;;5073509;28;20377;-67
2023/02/19 14:52:36;;;;;;;;;;;;;;;;;;5073713;28;20054;-68
2023/02/19 14:55:02;;;;;;;;;;;;;;;;;;5070292;28;19969;-67
2023/02/19 14:57:28;;;;;;;;;;;;;;;;;;5072452;28;19925;-67
2023/02/19 14:59:54;;;;;;;;;;;;;;;;;;5071590;28;19924;-67
2023/02/19 15:02:20;;;;;;;;;;;;;;;;;;5068938;28;19921;-68
2023/02/19 15:04:46;;;;;;;;;;;;;;;;;;5070824;28;19927;-67
2023/02/19 15:07:12;;;;;;;;;;;;;;;;;;5072895;28;19928;-67
2023/02/19 15:09:38;;;;;;;;;;;;;;;;;;5074162;28;19931;-67
2023/02/19 15:12:04;;;;;;;;;;;;;;;;;;5073573;28;19921;-67
2023/02/19 15:14:31;;;;;;;;;;;;;;;;;;5053600;28;19968;-67
2023/02/19 15:16:57;;;;;;;;;;;;;;;;;;5069923;28;19922;-67
2023/02/19 15:19:22;;;;;;;;;;;;;;;;;;5053051;28;20348;-67
2023/02/19 15:21:49;;;;;;;;;;;;;;;;;;5052081;28;19968;-67
2023/02/19 15:24:15;;;;;;;;;;;;;;;;;;5053897;28;19924;-68
2023/02/19 15:26:40;;;;;;;;;;;;;;;;;;5070484;28;19932;-68
2023/02/19 15:29:06;;;;;;;;;;;;;;;;;;5070485;28;19920;-67
2023/02/19 15:31:32;;;;;;;;;;;;;;;;;;5072384;28;19921;-67
2023/02/19 15:33:58;;;;;;;;;;;;;;;;;;5069724;28;19947;-68
2023/02/19 15:36:24;;;;;;;;;;;;;;;;;;5072485;28;20333;-67
2023/02/19 15:38:50;;;;;;;;;;;;;;;;;;5072699;28;19920;-68
2023/02/19 15:41:16;;;;;;;;;;;;;;;;;;5073227;28;19920;-68
2023/02/19 15:43:43;;;;;;;;;;;;;;;;;;5053512;28;19967;-67
2023/02/19 15:46:09;;;;;;;;;;;;;;;;;;5072865;28;19974;-68
2023/02/19 15:48:35;;;;;;;;;;;;;;;;;;5072308;28;19932;-67
2023/02/19 15:51:06;;;;;;;;;;;;;;;;;;5073060;28;19924;-68
2023/02/19 15:53:33;;;;;;;;;;;;;;;;;;5052291;28;20421;-68
2023/02/19 15:55:58;;;;;;;;;;;;;;;;;;5066818;28;20420;-68
2023/02/19 15:58:26;;;;;;;;;;;;;;;;;;5073022;28;19928;-67
2023/02/19 16:00:52;;;;;;;;;;;;;;;;;;5069944;28;19921;-67
2023/02/19 16:03:18;;;;;;;;;;;;;;;;;;5067808;28;20480;-67
2023/02/19 16:05:44;;;;;;;;;;;;;;;;;;5071281;28;19925;-67
2023/02/19 16:08:10;;;;;;;;;;;;;;;;;;5070853;28;20026;-68
2023/02/19 16:10:36;;;;;;;;;;;;;;;;;;5069011;28;19997;-67
2023/02/19 16:13:02;;;;;;;;;;;;;;;;;;5069312;28;20015;-67
2023/02/19 16:15:27;;;;;;;;;;;;;;;;;;5071872;28;20261;-67
2023/02/19 16:17:53;;;;;;;;;;;;;;;;;;5076907;28;20065;-67
2023/02/19 16:20:19;;;;;;;;;;;;;;;;;;5074536;28;19925;-67
2023/02/19 16:22:45;;;;;;;;;;;;;;;;;;5072525;28;19997;-67
2023/02/19 16:25:11;;;;;;;;;;;;;;;;;;5071627;28;20308;-67
2023/02/19 16:27:37;;;;;;;;;;;;;;;;;;5070964;28;19920;-67
2023/02/19 16:30:03;;;;;;;;;;;;;;;;;;5071005;28;20266;-67
2023/02/19 16:32:29;;;;;;;;;;;;;;;;;;5071381;28;19924;-67
2023/02/19 16:34:55;;;;;;;;;;;;;;;;;;5071158;28;19928;-67
2023/02/19 16:37:21;;;;;;;;;;;;;;;;;;5072257;28;19920;-67
2023/02/19 16:39:46;;;;;;;;;;;;;;;;;;5070986;28;19989;-67
2023/02/19 16:42:13;;;;;;;;;;;;;;;;;;5069243;28;19925;-67
2023/02/19 16:44:39;;;;;;;;;;;;;;;;;;5070986;28;19928;-67
2023/02/19 16:47:05;;;;;;;;;;;;;;;;;;5052228;28;19924;-67
2023/02/19 16:49:31;;;;;;;;;;;;;;;;;;5071607;28;19928;-67
2023/02/19 16:51:56;;;;;;;;;;;;;;;;;;5071939;28;19925;-67
2023/02/19 16:54:22;;;;;;;;;;;;;;;;;;5071960;28;20350;-68
2023/02/19 16:56:48;;;;;;;;;;;;;;;;;;5072184;28;19921;-67
2023/02/19 16:59:14;;;;;;;;;;;;;;;;;;5071494;28;20362;-67
2023/02/19 17:01:40;;;;;;;;;;;;;;;;;;5070789;28;19924;-67
2023/02/19 17:04:06;;;;;;;;;;;;;;;;;;5069521;28;19957;-67
2023/02/19 17:06:33;;;;;;;;;;;;;;;;;;5069364;28;19936;-67
2023/02/19 17:08:59;;;;;;;;;;;;;;;;;;5052852;28;19921;-67